sensor_id;sensor_type;location;lat;lon;timestamp;P1;durP1;ratioP1;P2;durP2;ratioP2
49784;SDS011;35679;38.732;-121.358;2023-02-17T00:01:35;9.70;;;3.30;;
49784;SDS011;35679;38.732;-121.358;2023-02-17T00:04:26;7.30;;;3.00;;
49784;SDS011;35679;38.732;-121.358;2023-02-17T00:07:16;7.85;;;2.97;;
49784;SDS011;35679;38.732;-121.358;2023-02-17T00:10:06;8.77;;;3.15;;
49784;SDS011;35679;38.732;-121.358;2023-02-17T00:12:56;4.43;;;2.78;;
49784;SDS011;35679;38.732;-121.358;2023-02-17T00:15:45;6.53;;;2.95;;
49784;SDS011;35679;38.732;-121.358;2023-02-17T00:18:35;3.72;;;3.00;;
49784;SDS011;35679;38.732;-121.358;2023-02-17T00:21:25;6.90;;;2.95;;
49784;SDS011;35679;38.732;-121.358;2023-02-17T00:24:17;6.05;;;2.85;;
49784;SDS011;35679;38.732;-121.358;2023-02-17T00:27:06;5.82;;;3.53;;
49784;SDS011;35679;38.732;-121.358;2023-02-17T00:29:55;6.70;;;3.58;;
49784;SDS011;35679;38.732;-121.358;2023-02-17T00:32:45;6.78;;;3.30;;
49784;SDS011;35679;38.732;-121.358;2023-02-17T00:35:37;5.85;;;3.30;;
49784;SDS011;35679;38.732;-121.358;2023-02-17T00:38:28;5.45;;;2.88;;
49784;SDS011;35679;38.732;-121.358;2023-02-17T00:41:18;6.95;;;3.17;;
49784;SDS011;35679;38.732;-121.358;2023-02-17T00:44:29;6.93;;;2.80;;
49784;SDS011;35679;38.732;-121.358;2023-02-17T00:47:18;5.45;;;2.97;;
49784;SDS011;35679;38.732;-121.358;2023-02-17T00:50:07;6.68;;;3.40;;
49784;SDS011;35679;38.732;-121.358;2023-02-17T00:52:56;2.80;;;2.60;;
49784;SDS011;35679;38.732;-121.358;2023-02-17T00:55:46;6.43;;;3.17;;
49784;SDS011;35679;38.732;-121.358;2023-02-17T00:58:37;4.65;;;3.15;;
49784;SDS011;35679;38.732;-121.358;2023-02-17T01:01:28;4.70;;;2.80;;
49784;SDS011;35679;38.732;-121.358;2023-02-17T01:04:18;3.78;;;3.28;;
49784;SDS011;35679;38.732;-121.358;2023-02-17T01:07:08;3.40;;;2.55;;
49784;SDS011;35679;38.732;-121.358;2023-02-17T01:09:58;7.60;;;3.15;;
49784;SDS011;35679;38.732;-121.358;2023-02-17T01:12:48;3.95;;;2.83;;
49784;SDS011;35679;38.732;-121.358;2023-02-17T01:15:44;2.88;;;2.60;;
49784;SDS011;35679;38.732;-121.358;2023-02-17T01:18:36;3.20;;;2.95;;
49784;SDS011;35679;38.732;-121.358;2023-02-17T01:21:26;2.90;;;2.70;;
49784;SDS011;35679;38.732;-121.358;2023-02-17T01:24:16;6.20;;;3.10;;
49784;SDS011;35679;38.732;-121.358;2023-02-17T01:27:06;3.15;;;2.95;;
49784;SDS011;35679;38.732;-121.358;2023-02-17T01:29:55;3.22;;;2.67;;
49784;SDS011;35679;38.732;-121.358;2023-02-17T01:32:46;3.40;;;3.10;;
49784;SDS011;35679;38.732;-121.358;2023-02-17T01:35:36;3.97;;;2.78;;
49784;SDS011;35679;38.732;-121.358;2023-02-17T01:38:25;3.13;;;2.90;;
49784;SDS011;35679;38.732;-121.358;2023-02-17T01:41:16;5.18;;;2.70;;
49784;SDS011;35679;38.732;-121.358;2023-02-17T01:47:23;3.30;;;3.08;;
49784;SDS011;35679;38.732;-121.358;2023-02-17T01:50:13;4.53;;;3.03;;
49784;SDS011;35679;38.732;-121.358;2023-02-17T01:53:02;3.75;;;3.22;;
49784;SDS011;35679;38.732;-121.358;2023-02-17T01:55:55;3.97;;;2.90;;
49784;SDS011;35679;38.732;-121.358;2023-02-17T01:58:46;3.45;;;2.53;;
49784;SDS011;35679;38.732;-121.358;2023-02-17T02:01:41;5.07;;;2.90;;
49784;SDS011;35679;38.732;-121.358;2023-02-17T02:04:31;3.50;;;2.90;;
49784;SDS011;35679;38.732;-121.358;2023-02-17T02:07:34;3.10;;;2.72;;
49784;SDS011;35679;38.732;-121.358;2023-02-17T02:10:27;4.25;;;3.03;;
49784;SDS011;35679;38.732;-121.358;2023-02-17T02:13:17;3.47;;;2.80;;
49784;SDS011;35679;38.732;-121.358;2023-02-17T02:16:10;3.58;;;2.80;;
49784;SDS011;35679;38.732;-121.358;2023-02-17T02:22:47;3.28;;;2.88;;
49784;SDS011;35679;38.732;-121.358;2023-02-17T02:29:11;3.03;;;2.70;;
49784;SDS011;35679;38.732;-121.358;2023-02-17T02:38:35;2.88;;;2.78;;
49784;SDS011;35679;38.732;-121.358;2023-02-17T02:41:39;4.22;;;3.10;;
49784;SDS011;35679;38.732;-121.358;2023-02-17T02:44:34;3.28;;;2.97;;
49784;SDS011;35679;38.732;-121.358;2023-02-17T02:50:53;3.20;;;3.00;;
49784;SDS011;35679;38.732;-121.358;2023-02-17T02:56:58;4.43;;;3.05;;
49784;SDS011;35679;38.732;-121.358;2023-02-17T02:59:57;4.20;;;3.42;;
49784;SDS011;35679;38.732;-121.358;2023-02-17T03:09:10;3.45;;;3.17;;
49784;SDS011;35679;38.732;-121.358;2023-02-17T03:12:05;3.40;;;3.20;;
49784;SDS011;35679;38.732;-121.358;2023-02-17T03:15:09;3.60;;;3.30;;
49784;SDS011;35679;38.732;-121.358;2023-02-17T03:18:03;3.53;;;3.22;;
49784;SDS011;35679;38.732;-121.358;2023-02-17T03:20:55;3.42;;;3.13;;
49784;SDS011;35679;38.732;-121.358;2023-02-17T03:23:48;5.03;;;3.30;;
49784;SDS011;35679;38.732;-121.358;2023-02-17T03:26:38;3.38;;;3.08;;
49784;SDS011;35679;38.732;-121.358;2023-02-17T03:29:27;3.42;;;3.13;;
49784;SDS011;35679;38.732;-121.358;2023-02-17T03:32:17;3.50;;;3.20;;
49784;SDS011;35679;38.732;-121.358;2023-02-17T03:35:07;3.22;;;2.90;;
49784;SDS011;35679;38.732;-121.358;2023-02-17T03:37:57;3.60;;;3.30;;
49784;SDS011;35679;38.732;-121.358;2023-02-17T03:40:47;3.42;;;3.22;;
49784;SDS011;35679;38.732;-121.358;2023-02-17T03:43:36;3.70;;;3.40;;
49784;SDS011;35679;38.732;-121.358;2023-02-17T03:46:26;3.97;;;3.67;;
49784;SDS011;35679;38.732;-121.358;2023-02-17T03:49:15;4.45;;;3.90;;
49784;SDS011;35679;38.732;-121.358;2023-02-17T03:52:04;6.55;;;3.67;;
49784;SDS011;35679;38.732;-121.358;2023-02-17T03:54:53;4.80;;;3.47;;
49784;SDS011;35679;38.732;-121.358;2023-02-17T03:57:43;4.07;;;3.78;;
49784;SDS011;35679;38.732;-121.358;2023-02-17T04:00:32;4.45;;;3.38;;
49784;SDS011;35679;38.732;-121.358;2023-02-17T04:03:21;3.90;;;3.60;;
49784;SDS011;35679;38.732;-121.358;2023-02-17T04:06:11;4.50;;;3.60;;
49784;SDS011;35679;38.732;-121.358;2023-02-17T04:09:00;4.50;;;3.70;;
49784;SDS011;35679;38.732;-121.358;2023-02-17T04:11:49;4.00;;;3.65;;
49784;SDS011;35679;38.732;-121.358;2023-02-17T04:14:39;3.80;;;3.50;;
49784;SDS011;35679;38.732;-121.358;2023-02-17T04:17:28;3.95;;;3.63;;
49784;SDS011;35679;38.732;-121.358;2023-02-17T04:20:17;3.90;;;3.58;;
49784;SDS011;35679;38.732;-121.358;2023-02-17T04:23:08;3.80;;;3.50;;
49784;SDS011;35679;38.732;-121.358;2023-02-17T04:25:58;4.00;;;3.70;;
49784;SDS011;35679;38.732;-121.358;2023-02-17T04:28:48;4.82;;;3.60;;
49784;SDS011;35679;38.732;-121.358;2023-02-17T04:31:37;4.45;;;3.50;;
49784;SDS011;35679;38.732;-121.358;2023-02-17T04:34:26;4.15;;;3.70;;
49784;SDS011;35679;38.732;-121.358;2023-02-17T04:37:16;4.30;;;3.90;;
49784;SDS011;35679;38.732;-121.358;2023-02-17T04:40:05;3.92;;;3.53;;
49784;SDS011;35679;38.732;-121.358;2023-02-17T04:42:57;4.30;;;3.95;;
49784;SDS011;35679;38.732;-121.358;2023-02-17T04:45:47;3.97;;;3.58;;
49784;SDS011;35679;38.732;-121.358;2023-02-17T04:48:36;4.40;;;4.00;;
49784;SDS011;35679;38.732;-121.358;2023-02-17T04:51:26;4.38;;;3.97;;
49784;SDS011;35679;38.732;-121.358;2023-02-17T04:54:15;4.30;;;3.90;;
49784;SDS011;35679;38.732;-121.358;2023-02-17T04:57:05;4.72;;;4.32;;
49784;SDS011;35679;38.732;-121.358;2023-02-17T04:59:54;4.80;;;4.40;;
49784;SDS011;35679;38.732;-121.358;2023-02-17T05:02:43;5.32;;;4.53;;
49784;SDS011;35679;38.732;-121.358;2023-02-17T05:05:32;4.63;;;4.22;;
49784;SDS011;35679;38.732;-121.358;2023-02-17T05:08:25;4.75;;;4.30;;
49784;SDS011;35679;38.732;-121.358;2023-02-17T05:11:14;4.88;;;4.28;;
49784;SDS011;35679;38.732;-121.358;2023-02-17T05:14:04;4.57;;;4.18;;
49784;SDS011;35679;38.732;-121.358;2023-02-17T05:16:53;4.75;;;4.30;;
49784;SDS011;35679;38.732;-121.358;2023-02-17T05:19:43;4.85;;;4.35;;
49784;SDS011;35679;38.732;-121.358;2023-02-17T05:22:32;4.95;;;4.43;;
49784;SDS011;35679;38.732;-121.358;2023-02-17T05:25:22;4.57;;;4.18;;
49784;SDS011;35679;38.732;-121.358;2023-02-17T05:28:12;5.30;;;4.57;;
49784;SDS011;35679;38.732;-121.358;2023-02-17T05:31:01;6.03;;;4.68;;
49784;SDS011;35679;38.732;-121.358;2023-02-17T05:33:52;4.95;;;4.55;;
49784;SDS011;35679;38.732;-121.358;2023-02-17T05:36:42;5.03;;;4.15;;
49784;SDS011;35679;38.732;-121.358;2023-02-17T05:39:31;4.75;;;4.35;;
49784;SDS011;35679;38.732;-121.358;2023-02-17T05:42:20;6.63;;;4.43;;
49784;SDS011;35679;38.732;-121.358;2023-02-17T05:45:10;6.28;;;4.60;;
49784;SDS011;35679;38.732;-121.358;2023-02-17T05:48:00;5.18;;;4.63;;
49784;SDS011;35679;38.732;-121.358;2023-02-17T05:50:50;5.10;;;4.63;;
49784;SDS011;35679;38.732;-121.358;2023-02-17T05:53:40;5.00;;;4.60;;
49784;SDS011;35679;38.732;-121.358;2023-02-17T05:56:29;5.78;;;4.75;;
49784;SDS011;35679;38.732;-121.358;2023-02-17T05:59:19;5.78;;;5.28;;
49784;SDS011;35679;38.732;-121.358;2023-02-17T06:02:08;7.45;;;5.28;;
49784;SDS011;35679;38.732;-121.358;2023-02-17T06:04:57;5.45;;;4.90;;
49784;SDS011;35679;38.732;-121.358;2023-02-17T06:07:46;5.82;;;4.82;;
49784;SDS011;35679;38.732;-121.358;2023-02-17T06:10:36;5.43;;;4.93;;
49784;SDS011;35679;38.732;-121.358;2023-02-17T06:13:26;5.43;;;4.90;;
49784;SDS011;35679;38.732;-121.358;2023-02-17T06:16:15;5.78;;;5.07;;
49784;SDS011;35679;38.732;-121.358;2023-02-17T06:19:05;6.10;;;5.32;;
49784;SDS011;35679;38.732;-121.358;2023-02-17T06:21:55;6.07;;;5.30;;
49784;SDS011;35679;38.732;-121.358;2023-02-17T06:24:44;5.68;;;5.18;;
49784;SDS011;35679;38.732;-121.358;2023-02-17T06:27:34;6.18;;;5.55;;
49784;SDS011;35679;38.732;-121.358;2023-02-17T06:30:23;6.00;;;5.47;;
49784;SDS011;35679;38.732;-121.358;2023-02-17T06:33:13;5.93;;;5.18;;
49784;SDS011;35679;38.732;-121.358;2023-02-17T06:36:02;6.00;;;5.45;;
49784;SDS011;35679;38.732;-121.358;2023-02-17T06:38:52;6.95;;;5.05;;
49784;SDS011;35679;38.732;-121.358;2023-02-17T06:41:42;5.75;;;5.07;;
49784;SDS011;35679;38.732;-121.358;2023-02-17T06:44:31;6.13;;;5.13;;
49784;SDS011;35679;38.732;-121.358;2023-02-17T06:47:20;6.40;;;5.05;;
49784;SDS011;35679;38.732;-121.358;2023-02-17T06:50:10;5.65;;;5.05;;
49784;SDS011;35679;38.732;-121.358;2023-02-17T06:52:59;6.15;;;5.25;;
49784;SDS011;35679;38.732;-121.358;2023-02-17T06:55:48;5.55;;;4.82;;
49784;SDS011;35679;38.732;-121.358;2023-02-17T06:58:37;6.80;;;5.47;;
49784;SDS011;35679;38.732;-121.358;2023-02-17T07:01:27;5.95;;;5.35;;
49784;SDS011;35679;38.732;-121.358;2023-02-17T07:04:16;5.70;;;4.80;;
49784;SDS011;35679;38.732;-121.358;2023-02-17T07:07:06;5.88;;;5.28;;
49784;SDS011;35679;38.732;-121.358;2023-02-17T07:09:55;5.40;;;4.88;;
49784;SDS011;35679;38.732;-121.358;2023-02-17T07:12:45;5.85;;;5.22;;
49784;SDS011;35679;38.732;-121.358;2023-02-17T07:15:34;7.07;;;5.60;;
49784;SDS011;35679;38.732;-121.358;2023-02-17T07:18:23;6.55;;;5.20;;
49784;SDS011;35679;38.732;-121.358;2023-02-17T07:21:13;5.45;;;4.90;;
49784;SDS011;35679;38.732;-121.358;2023-02-17T07:24:02;6.47;;;5.43;;
49784;SDS011;35679;38.732;-121.358;2023-02-17T07:26:51;6.78;;;4.95;;
49784;SDS011;35679;38.732;-121.358;2023-02-17T07:29:43;5.35;;;4.85;;
49784;SDS011;35679;38.732;-121.358;2023-02-17T07:32:32;5.53;;;5.00;;
49784;SDS011;35679;38.732;-121.358;2023-02-17T07:35:23;5.75;;;5.20;;
49784;SDS011;35679;38.732;-121.358;2023-02-17T07:38:12;6.03;;;5.15;;
49784;SDS011;35679;38.732;-121.358;2023-02-17T07:41:11;5.63;;;5.20;;
49784;SDS011;35679;38.732;-121.358;2023-02-17T07:44:02;5.93;;;5.40;;
49784;SDS011;35679;38.732;-121.358;2023-02-17T07:46:52;5.72;;;5.22;;
49784;SDS011;35679;38.732;-121.358;2023-02-17T07:49:41;5.50;;;5.07;;
49784;SDS011;35679;38.732;-121.358;2023-02-17T07:52:31;6.18;;;5.22;;
49784;SDS011;35679;38.732;-121.358;2023-02-17T07:55:20;6.03;;;5.53;;
49784;SDS011;35679;38.732;-121.358;2023-02-17T07:58:11;5.78;;;5.28;;
49784;SDS011;35679;38.732;-121.358;2023-02-17T08:01:07;5.95;;;5.35;;
49784;SDS011;35679;38.732;-121.358;2023-02-17T08:04:01;5.88;;;5.28;;
49784;SDS011;35679;38.732;-121.358;2023-02-17T08:06:50;6.28;;;5.70;;
49784;SDS011;35679;38.732;-121.358;2023-02-17T08:09:39;6.43;;;5.63;;
49784;SDS011;35679;38.732;-121.358;2023-02-17T08:12:47;6.43;;;5.18;;
49784;SDS011;35679;38.732;-121.358;2023-02-17T08:15:54;6.45;;;5.30;;
49784;SDS011;35679;38.732;-121.358;2023-02-17T08:18:44;5.70;;;5.20;;
49784;SDS011;35679;38.732;-121.358;2023-02-17T08:21:33;5.75;;;5.25;;
49784;SDS011;35679;38.732;-121.358;2023-02-17T08:24:23;5.72;;;5.25;;
49784;SDS011;35679;38.732;-121.358;2023-02-17T08:27:13;6.25;;;5.65;;
49784;SDS011;35679;38.732;-121.358;2023-02-17T08:30:03;6.05;;;5.55;;
49784;SDS011;35679;38.732;-121.358;2023-02-17T08:32:53;6.03;;;5.35;;
49784;SDS011;35679;38.732;-121.358;2023-02-17T08:35:42;5.80;;;5.22;;
49784;SDS011;35679;38.732;-121.358;2023-02-17T08:38:33;6.00;;;5.50;;
49784;SDS011;35679;38.732;-121.358;2023-02-17T08:41:24;5.60;;;5.10;;
49784;SDS011;35679;38.732;-121.358;2023-02-17T08:44:22;5.68;;;5.15;;
49784;SDS011;35679;38.732;-121.358;2023-02-17T08:47:11;6.30;;;5.53;;
49784;SDS011;35679;38.732;-121.358;2023-02-17T08:50:01;7.15;;;5.28;;
49784;SDS011;35679;38.732;-121.358;2023-02-17T08:52:52;6.05;;;5.55;;
49784;SDS011;35679;38.732;-121.358;2023-02-17T08:55:42;5.97;;;5.13;;
49784;SDS011;35679;38.732;-121.358;2023-02-17T08:58:36;6.07;;;5.57;;
49784;SDS011;35679;38.732;-121.358;2023-02-17T09:01:25;5.47;;;4.90;;
49784;SDS011;35679;38.732;-121.358;2023-02-17T09:04:15;6.13;;;5.35;;
49784;SDS011;35679;38.732;-121.358;2023-02-17T09:07:07;5.55;;;5.10;;
49784;SDS011;35679;38.732;-121.358;2023-02-17T09:09:58;5.82;;;5.32;;
49784;SDS011;35679;38.732;-121.358;2023-02-17T09:12:48;6.65;;;5.28;;
49784;SDS011;35679;38.732;-121.358;2023-02-17T09:15:39;5.43;;;4.93;;
49784;SDS011;35679;38.732;-121.358;2023-02-17T09:18:28;7.85;;;5.28;;
49784;SDS011;35679;38.732;-121.358;2023-02-17T09:21:18;6.85;;;5.57;;
49784;SDS011;35679;38.732;-121.358;2023-02-17T09:24:08;6.15;;;5.57;;
49784;SDS011;35679;38.732;-121.358;2023-02-17T09:26:57;5.80;;;5.20;;
49784;SDS011;35679;38.732;-121.358;2023-02-17T09:29:47;5.93;;;5.43;;
49784;SDS011;35679;38.732;-121.358;2023-02-17T09:32:39;6.07;;;5.50;;
49784;SDS011;35679;38.732;-121.358;2023-02-17T09:35:30;5.70;;;5.15;;
49784;SDS011;35679;38.732;-121.358;2023-02-17T09:38:20;7.03;;;5.45;;
49784;SDS011;35679;38.732;-121.358;2023-02-17T09:41:14;5.95;;;5.40;;
49784;SDS011;35679;38.732;-121.358;2023-02-17T09:44:19;5.80;;;5.30;;
49784;SDS011;35679;38.732;-121.358;2023-02-17T09:47:32;6.45;;;5.38;;
49784;SDS011;35679;38.732;-121.358;2023-02-17T09:50:28;5.75;;;5.25;;
49784;SDS011;35679;38.732;-121.358;2023-02-17T09:53:31;6.60;;;6.00;;
49784;SDS011;35679;38.732;-121.358;2023-02-17T09:56:30;5.60;;;5.10;;
49784;SDS011;35679;38.732;-121.358;2023-02-17T09:59:36;5.70;;;5.13;;
49784;SDS011;35679;38.732;-121.358;2023-02-17T10:02:40;6.20;;;5.55;;
49784;SDS011;35679;38.732;-121.358;2023-02-17T10:05:39;6.28;;;5.32;;
49784;SDS011;35679;38.732;-121.358;2023-02-17T10:08:37;5.75;;;5.25;;
49784;SDS011;35679;38.732;-121.358;2023-02-17T10:11:47;5.38;;;4.97;;
49784;SDS011;35679;38.732;-121.358;2023-02-17T10:20:41;6.72;;;5.50;;
49784;SDS011;35679;38.732;-121.358;2023-02-17T10:23:37;5.43;;;4.93;;
49784;SDS011;35679;38.732;-121.358;2023-02-17T10:26:47;7.60;;;5.70;;
49784;SDS011;35679;38.732;-121.358;2023-02-17T10:33:36;5.88;;;5.10;;
49784;SDS011;35679;38.732;-121.358;2023-02-17T10:37:00;5.43;;;4.93;;
49784;SDS011;35679;38.732;-121.358;2023-02-17T10:39:44;5.80;;;5.30;;
49784;SDS011;35679;38.732;-121.358;2023-02-17T10:42:37;5.93;;;5.32;;
49784;SDS011;35679;38.732;-121.358;2023-02-17T10:45:43;6.32;;;5.75;;
49784;SDS011;35679;38.732;-121.358;2023-02-17T10:48:38;5.82;;;5.32;;
49784;SDS011;35679;38.732;-121.358;2023-02-17T10:51:31;6.13;;;4.90;;
49784;SDS011;35679;38.732;-121.358;2023-02-17T10:54:36;6.55;;;5.95;;
49784;SDS011;35679;38.732;-121.358;2023-02-17T10:57:29;5.80;;;5.30;;
49784;SDS011;35679;38.732;-121.358;2023-02-17T11:00:23;5.63;;;5.10;;
49784;SDS011;35679;38.732;-121.358;2023-02-17T11:03:22;7.30;;;6.03;;
49784;SDS011;35679;38.732;-121.358;2023-02-17T11:06:19;6.03;;;5.53;;
49784;SDS011;35679;38.732;-121.358;2023-02-17T11:09:17;5.72;;;5.22;;
49784;SDS011;35679;38.732;-121.358;2023-02-17T11:12:49;5.85;;;5.35;;
49784;SDS011;35679;38.732;-121.358;2023-02-17T11:15:35;6.25;;;5.65;;
49784;SDS011;35679;38.732;-121.358;2023-02-17T11:18:33;5.97;;;5.30;;
49784;SDS011;35679;38.732;-121.358;2023-02-17T11:21:27;5.85;;;5.35;;
49784;SDS011;35679;38.732;-121.358;2023-02-17T11:24:17;6.07;;;5.13;;
49784;SDS011;35679;38.732;-121.358;2023-02-17T11:27:08;5.50;;;5.03;;
49784;SDS011;35679;38.732;-121.358;2023-02-17T11:30:12;5.93;;;5.40;;
49784;SDS011;35679;38.732;-121.358;2023-02-17T11:33:10;6.10;;;5.57;;
49784;SDS011;35679;38.732;-121.358;2023-02-17T11:36:03;5.90;;;5.40;;
49784;SDS011;35679;38.732;-121.358;2023-02-17T11:38:55;5.35;;;4.93;;
49784;SDS011;35679;38.732;-121.358;2023-02-17T11:41:45;5.72;;;5.22;;
49784;SDS011;35679;38.732;-121.358;2023-02-17T11:44:34;5.60;;;5.10;;
49784;SDS011;35679;38.732;-121.358;2023-02-17T11:50:37;5.55;;;5.03;;
49784;SDS011;35679;38.732;-121.358;2023-02-17T11:56:58;6.45;;;5.68;;
49784;SDS011;35679;38.732;-121.358;2023-02-17T12:06:28;5.60;;;5.10;;
49784;SDS011;35679;38.732;-121.358;2023-02-17T12:09:26;6.82;;;5.30;;
49784;SDS011;35679;38.732;-121.358;2023-02-17T12:24:33;5.97;;;5.47;;
49784;SDS011;35679;38.732;-121.358;2023-02-17T12:27:37;5.82;;;5.03;;
49784;SDS011;35679;38.732;-121.358;2023-02-17T12:30:54;6.18;;;5.40;;
49784;SDS011;35679;38.732;-121.358;2023-02-17T12:34:01;5.78;;;5.28;;
49784;SDS011;35679;38.732;-121.358;2023-02-17T12:37:01;5.97;;;5.38;;
49784;SDS011;35679;38.732;-121.358;2023-02-17T12:39:55;6.13;;;5.40;;
49784;SDS011;35679;38.732;-121.358;2023-02-17T12:42:52;5.47;;;4.90;;
49784;SDS011;35679;38.732;-121.358;2023-02-17T12:45:48;5.88;;;5.22;;
49784;SDS011;35679;38.732;-121.358;2023-02-17T12:48:45;5.57;;;4.97;;
49784;SDS011;35679;38.732;-121.358;2023-02-17T12:58:06;5.68;;;5.10;;
49784;SDS011;35679;38.732;-121.358;2023-02-17T13:01:03;5.40;;;5.00;;
49784;SDS011;35679;38.732;-121.358;2023-02-17T13:03:53;6.25;;;5.47;;
49784;SDS011;35679;38.732;-121.358;2023-02-17T13:06:51;5.18;;;4.78;;
49784;SDS011;35679;38.732;-121.358;2023-02-17T13:09:44;5.25;;;4.72;;
49784;SDS011;35679;38.732;-121.358;2023-02-17T13:12:37;8.75;;;5.25;;
49784;SDS011;35679;38.732;-121.358;2023-02-17T13:15:38;5.55;;;5.05;;
49784;SDS011;35679;38.732;-121.358;2023-02-17T13:18:34;5.60;;;4.82;;
49784;SDS011;35679;38.732;-121.358;2023-02-17T13:21:31;5.05;;;4.65;;
49784;SDS011;35679;38.732;-121.358;2023-02-17T13:24:34;7.57;;;4.97;;
49784;SDS011;35679;38.732;-121.358;2023-02-17T13:45:52;5.43;;;4.93;;
49784;SDS011;35679;38.732;-121.358;2023-02-17T13:48:56;5.70;;;4.60;;
49784;SDS011;35679;38.732;-121.358;2023-02-17T13:51:50;5.60;;;4.78;;
49784;SDS011;35679;38.732;-121.358;2023-02-17T13:54:39;4.97;;;4.57;;
49784;SDS011;35679;38.732;-121.358;2023-02-17T13:57:58;5.53;;;5.03;;
49784;SDS011;35679;38.732;-121.358;2023-02-17T14:00:47;5.00;;;4.50;;
49784;SDS011;35679;38.732;-121.358;2023-02-17T14:03:41;5.40;;;4.93;;
49784;SDS011;35679;38.732;-121.358;2023-02-17T14:06:38;4.47;;;4.10;;
49784;SDS011;35679;38.732;-121.358;2023-02-17T14:09:29;4.97;;;4.47;;
49784;SDS011;35679;38.732;-121.358;2023-02-17T14:12:21;5.10;;;4.60;;
49784;SDS011;35679;38.732;-121.358;2023-02-17T14:15:15;5.70;;;5.10;;
49784;SDS011;35679;38.732;-121.358;2023-02-17T14:18:14;5.20;;;4.70;;
49784;SDS011;35679;38.732;-121.358;2023-02-17T14:21:11;5.75;;;4.95;;
49784;SDS011;35679;38.732;-121.358;2023-02-17T14:27:41;5.50;;;5.00;;
49784;SDS011;35679;38.732;-121.358;2023-02-17T14:30:36;5.55;;;5.05;;
49784;SDS011;35679;38.732;-121.358;2023-02-17T14:33:27;5.50;;;4.50;;
49784;SDS011;35679;38.732;-121.358;2023-02-17T14:36:24;6.75;;;5.10;;
49784;SDS011;35679;38.732;-121.358;2023-02-17T14:39:15;5.18;;;4.68;;
49784;SDS011;35679;38.732;-121.358;2023-02-17T14:42:04;5.75;;;4.95;;
49784;SDS011;35679;38.732;-121.358;2023-02-17T14:44:53;4.88;;;4.45;;
49784;SDS011;35679;38.732;-121.358;2023-02-17T14:47:43;5.38;;;4.93;;
49784;SDS011;35679;38.732;-121.358;2023-02-17T14:50:33;5.30;;;4.80;;
49784;SDS011;35679;38.732;-121.358;2023-02-17T14:53:30;5.40;;;4.90;;
49784;SDS011;35679;38.732;-121.358;2023-02-17T14:56:25;6.10;;;5.13;;
49784;SDS011;35679;38.732;-121.358;2023-02-17T14:59:17;7.03;;;5.60;;
49784;SDS011;35679;38.732;-121.358;2023-02-17T15:02:14;4.93;;;4.43;;
49784;SDS011;35679;38.732;-121.358;2023-02-17T15:05:05;5.13;;;4.70;;
49784;SDS011;35679;38.732;-121.358;2023-02-17T15:07:55;6.18;;;4.97;;
49784;SDS011;35679;38.732;-121.358;2023-02-17T15:10:46;5.55;;;4.45;;
49784;SDS011;35679;38.732;-121.358;2023-02-17T15:13:36;4.95;;;4.50;;
49784;SDS011;35679;38.732;-121.358;2023-02-17T15:16:25;5.15;;;4.65;;
49784;SDS011;35679;38.732;-121.358;2023-02-17T15:19:15;5.10;;;4.47;;
49784;SDS011;35679;38.732;-121.358;2023-02-17T15:22:08;5.35;;;4.85;;
49784;SDS011;35679;38.732;-121.358;2023-02-17T15:25:00;5.57;;;5.07;;
49784;SDS011;35679;38.732;-121.358;2023-02-17T15:27:49;5.32;;;4.60;;
49784;SDS011;35679;38.732;-121.358;2023-02-17T15:30:39;5.38;;;4.88;;
49784;SDS011;35679;38.732;-121.358;2023-02-17T15:33:28;5.00;;;4.55;;
49784;SDS011;35679;38.732;-121.358;2023-02-17T15:36:18;5.75;;;4.97;;
49784;SDS011;35679;38.732;-121.358;2023-02-17T15:39:14;5.68;;;5.18;;
49784;SDS011;35679;38.732;-121.358;2023-02-17T15:42:06;5.32;;;4.90;;
49784;SDS011;35679;38.732;-121.358;2023-02-17T15:45:01;6.05;;;4.80;;
49784;SDS011;35679;38.732;-121.358;2023-02-17T15:47:52;6.00;;;4.93;;
49784;SDS011;35679;38.732;-121.358;2023-02-17T15:51:05;5.55;;;5.05;;
49784;SDS011;35679;38.732;-121.358;2023-02-17T15:53:59;5.18;;;4.78;;
49784;SDS011;35679;38.732;-121.358;2023-02-17T15:56:52;4.93;;;4.53;;
49784;SDS011;35679;38.732;-121.358;2023-02-17T15:59:41;5.13;;;4.63;;
49784;SDS011;35679;38.732;-121.358;2023-02-17T16:02:31;5.28;;;4.57;;
49784;SDS011;35679;38.732;-121.358;2023-02-17T16:05:21;5.07;;;4.60;;
49784;SDS011;35679;38.732;-121.358;2023-02-17T16:08:19;5.18;;;4.68;;
49784;SDS011;35679;38.732;-121.358;2023-02-17T16:11:18;6.60;;;4.95;;
49784;SDS011;35679;38.732;-121.358;2023-02-17T16:14:13;5.05;;;4.57;;
49784;SDS011;35679;38.732;-121.358;2023-02-17T16:17:18;5.68;;;4.82;;
49784;SDS011;35679;38.732;-121.358;2023-02-17T16:20:18;4.72;;;4.32;;
49784;SDS011;35679;38.732;-121.358;2023-02-17T16:23:15;5.07;;;4.60;;
49784;SDS011;35679;38.732;-121.358;2023-02-17T16:26:25;4.57;;;4.18;;
49784;SDS011;35679;38.732;-121.358;2023-02-17T16:29:16;4.75;;;4.35;;
49784;SDS011;35679;38.732;-121.358;2023-02-17T16:32:11;5.57;;;4.70;;
49784;SDS011;35679;38.732;-121.358;2023-02-17T16:35:01;5.20;;;4.70;;
49784;SDS011;35679;38.732;-121.358;2023-02-17T16:38:01;4.90;;;4.43;;
49784;SDS011;35679;38.732;-121.358;2023-02-17T16:40:54;5.57;;;4.85;;
49784;SDS011;35679;38.732;-121.358;2023-02-17T16:43:44;5.18;;;4.47;;
49784;SDS011;35679;38.732;-121.358;2023-02-17T16:46:35;4.70;;;4.30;;
49784;SDS011;35679;38.732;-121.358;2023-02-17T16:49:26;4.68;;;4.28;;
49784;SDS011;35679;38.732;-121.358;2023-02-17T16:52:22;5.70;;;4.40;;
49784;SDS011;35679;38.732;-121.358;2023-02-17T16:55:14;5.13;;;4.60;;
49784;SDS011;35679;38.732;-121.358;2023-02-17T16:58:13;4.60;;;4.20;;
49784;SDS011;35679;38.732;-121.358;2023-02-17T17:01:04;4.70;;;4.30;;
49784;SDS011;35679;38.732;-121.358;2023-02-17T17:03:59;4.85;;;4.32;;
49784;SDS011;35679;38.732;-121.358;2023-02-17T17:06:49;4.53;;;4.20;;
49784;SDS011;35679;38.732;-121.358;2023-02-17T17:09:39;5.20;;;4.70;;
49784;SDS011;35679;38.732;-121.358;2023-02-17T17:12:43;4.82;;;4.40;;
49784;SDS011;35679;38.732;-121.358;2023-02-17T17:15:34;5.45;;;4.95;;
49784;SDS011;35679;38.732;-121.358;2023-02-17T17:18:25;5.15;;;4.65;;
49784;SDS011;35679;38.732;-121.358;2023-02-17T17:21:15;5.70;;;4.68;;
49784;SDS011;35679;38.732;-121.358;2023-02-17T17:24:06;5.15;;;4.68;;
49784;SDS011;35679;38.732;-121.358;2023-02-17T17:26:55;4.97;;;4.57;;
49784;SDS011;35679;38.732;-121.358;2023-02-17T17:29:44;5.50;;;4.82;;
49784;SDS011;35679;38.732;-121.358;2023-02-17T17:32:33;5.32;;;4.50;;
49784;SDS011;35679;38.732;-121.358;2023-02-17T17:35:23;4.93;;;4.28;;
49784;SDS011;35679;38.732;-121.358;2023-02-17T17:38:14;4.93;;;4.40;;
49784;SDS011;35679;38.732;-121.358;2023-02-17T17:41:12;5.03;;;4.45;;
49784;SDS011;35679;38.732;-121.358;2023-02-17T17:44:03;4.70;;;4.30;;
49784;SDS011;35679;38.732;-121.358;2023-02-17T17:46:52;5.00;;;4.50;;
49784;SDS011;35679;38.732;-121.358;2023-02-17T17:49:42;4.45;;;4.15;;
49784;SDS011;35679;38.732;-121.358;2023-02-17T17:52:31;4.70;;;4.38;;
49784;SDS011;35679;38.732;-121.358;2023-02-17T17:55:21;4.35;;;4.00;;
49784;SDS011;35679;38.732;-121.358;2023-02-17T17:58:12;4.95;;;4.55;;
49784;SDS011;35679;38.732;-121.358;2023-02-17T18:01:03;4.97;;;4.47;;
49784;SDS011;35679;38.732;-121.358;2023-02-17T18:03:53;4.57;;;4.18;;
49784;SDS011;35679;38.732;-121.358;2023-02-17T18:06:47;4.50;;;4.10;;
49784;SDS011;35679;38.732;-121.358;2023-02-17T18:09:39;4.90;;;4.45;;